This is the latest recevied weather packets stored in our database for station/object AJ1L. If no packets are shown the sender has not sent any weather packets the latest 1 day(s).
| Time | Temp. | Humidity | Pressure | Rain* | Wind** | Luminosity | Snow |
|---|---|---|---|---|---|---|---|
| 1778021649 | 17.22° C | 65% | 1008.7 hPa | 0 mm | 2.68 m/s, 208° | - | - |
| 1778020649 | 17.78° C | 64% | 1008.8 hPa | 0 mm | 2.24 m/s, 227° | - | - |
| 1778019649 | 18.89° C | 60% | 1008.8 hPa | 0 mm | 2.68 m/s, 238° | - | - |
| 1778018649 | 19.44° C | 57% | 1008.3 hPa | 0 mm | 2.24 m/s, 227° | - | - |
| 1778017649 | 20° C | 56% | 1008.2 hPa | 0 mm | 2.24 m/s, 217° | - | - |
| 1778016649 | 20° C | 55% | 1008.3 hPa | 0 mm | 3.13 m/s, 218° | - | - |
| 1778015649 | 20° C | 55% | 1008.2 hPa | 0 mm | 3.13 m/s, 244° | - | - |
| 1778014649 | 20° C | 55% | 1008.2 hPa | 0 mm | 2.68 m/s, 219° | - | - |
| 1778013649 | 21.11° C | 52% | 1008.3 hPa | 0 mm | 3.13 m/s, 228° | - | - |
| 1778012649 | 21.67° C | 51% | 1008.1 hPa | 0 mm | 3.13 m/s, 234° | - | - |
| 1778010649 | 23.89° C | 45% | 1008.1 hPa | 0 mm | 2.24 m/s, 212° | - | - |
| 1778009650 | 24.44° C | 44% | 1008.1 hPa | 0 mm | 2.68 m/s, 240° | - | - |
| 1778008649 | 24.44° C | 44% | 1008.1 hPa | 0 mm | 2.68 m/s, 219° | - | - |
| 1778007649 | 25° C | 44% | 1008.2 hPa | 0 mm | 2.24 m/s, 232° | - | - |
| 1778004649 | 23.33° C | 45% | 1008.9 hPa | 0 mm | 2.68 m/s, 223° | - | - |
| 1778001649 | 23.89° C | 47% | 1009.3 hPa | 0 mm | 2.68 m/s, 234° | - | - |
| 1778000649 | 24.44° C | 48% | 1009.3 hPa | 0 mm | 1.79 m/s, 192° | - | - |
| 1777999649 | 25° C | 48% | 1009.6 hPa | 0 mm | 1.79 m/s, 181° | - | - |
| 1777998649 | 25° C | 48% | 1009.6 hPa | 0 mm | 1.79 m/s, 227° | - | - |
| 1777996649 | 24.44° C | 48% | 1009.8 hPa | 0 mm | 1.79 m/s, 254° | - | - |
| 1777995649 | 23.33° C | 51% | 1009.9 hPa | 0 mm | 1.79 m/s, 217° | - | - |
| 1777994648 | 22.78° C | 54% | 1010 hPa | 0 mm | 1.34 m/s, 264° | - | - |
| 1777993648 | 22.22° C | 53% | 1010.2 hPa | 0 mm | 1.34 m/s, 238° | - | - |
| 1777992649 | 21.67° C | 56% | 1010.1 hPa | 0 mm | 1.34 m/s, 205° | - | - |
| 1777991648 | 20.56° C | 59% | 1010.2 hPa | 0 mm | 0.89 m/s, 225° | - | - |
* Rain latest hour (hover to see other rain measurements)
** Current wind speed in m/s (hover to see current wind gust speed)